sensor_id;sensor_type;location;lat;lon;timestamp;temperature;humidity
15765;DHT22;7983;50.744;7.086;2022-11-20T00:01:28;5.40;99.90
15765;DHT22;7983;50.744;7.086;2022-11-20T00:03:56;5.40;99.90
15765;DHT22;7983;50.744;7.086;2022-11-20T00:06:23;5.40;99.90
15765;DHT22;7983;50.744;7.086;2022-11-20T00:08:49;5.50;99.90
15765;DHT22;7983;50.744;7.086;2022-11-20T00:11:20;5.40;99.90
15765;DHT22;7983;50.744;7.086;2022-11-20T00:13:49;5.40;99.90
15765;DHT22;7983;50.744;7.086;2022-11-20T00:16:17;5.40;99.90
15765;DHT22;7983;50.744;7.086;2022-11-20T00:18:45;5.40;99.90
15765;DHT22;7983;50.744;7.086;2022-11-20T00:21:17;5.40;99.90
15765;DHT22;7983;50.744;7.086;2022-11-20T00:23:46;5.40;99.90
15765;DHT22;7983;50.744;7.086;2022-11-20T00:26:17;5.40;99.90
15765;DHT22;7983;50.744;7.086;2022-11-20T00:28:44;5.40;99.90
15765;DHT22;7983;50.744;7.086;2022-11-20T00:31:16;5.40;99.90
15765;DHT22;7983;50.744;7.086;2022-11-20T00:33:47;5.40;99.90
15765;DHT22;7983;50.744;7.086;2022-11-20T00:36:16;5.40;99.90
15765;DHT22;7983;50.744;7.086;2022-11-20T00:38:45;5.30;99.90
15765;DHT22;7983;50.744;7.086;2022-11-20T00:41:13;5.40;99.90
15765;DHT22;7983;50.744;7.086;2022-11-20T00:43:39;5.30;99.90
15765;DHT22;7983;50.744;7.086;2022-11-20T00:48:41;5.30;99.90
15765;DHT22;7983;50.744;7.086;2022-11-20T00:51:06;5.40;99.90
15765;DHT22;7983;50.744;7.086;2022-11-20T00:53:34;5.30;99.90
15765;DHT22;7983;50.744;7.086;2022-11-20T00:56:06;5.30;99.90
15765;DHT22;7983;50.744;7.086;2022-11-20T00:58:37;5.30;99.90
15765;DHT22;7983;50.744;7.086;2022-11-20T01:03:44;5.40;99.90
15765;DHT22;7983;50.744;7.086;2022-11-20T01:08:43;5.40;99.90
15765;DHT22;7983;50.744;7.086;2022-11-20T01:11:11;5.40;99.90
15765;DHT22;7983;50.744;7.086;2022-11-20T01:13:38;5.40;99.90
15765;DHT22;7983;50.744;7.086;2022-11-20T01:18:39;5.30;99.90
15765;DHT22;7983;50.744;7.086;2022-11-20T01:21:13;5.40;99.90
15765;DHT22;7983;50.744;7.086;2022-11-20T01:23:44;5.40;99.90
15765;DHT22;7983;50.744;7.086;2022-11-20T01:26:12;5.40;99.90
15765;DHT22;7983;50.744;7.086;2022-11-20T01:28:41;5.40;99.90
15765;DHT22;7983;50.744;7.086;2022-11-20T01:31:15;5.30;99.90
15765;DHT22;7983;50.744;7.086;2022-11-20T01:33:41;5.30;99.90
15765;DHT22;7983;50.744;7.086;2022-11-20T01:36:08;5.30;99.90
15765;DHT22;7983;50.744;7.086;2022-11-20T01:38:34;5.40;99.90
15765;DHT22;7983;50.744;7.086;2022-11-20T01:41:04;5.40;99.90
15765;DHT22;7983;50.744;7.086;2022-11-20T01:43:30;5.30;99.90
15765;DHT22;7983;50.744;7.086;2022-11-20T01:45:59;5.40;99.90
15765;DHT22;7983;50.744;7.086;2022-11-20T01:48:50;5.30;99.90
15765;DHT22;7983;50.744;7.086;2022-11-20T01:51:33;5.40;99.90
15765;DHT22;7983;50.744;7.086;2022-11-20T01:54:02;5.40;99.90
15765;DHT22;7983;50.744;7.086;2022-11-20T01:56:33;5.40;99.90
15765;DHT22;7983;50.744;7.086;2022-11-20T01:59:02;5.30;99.90
15765;DHT22;7983;50.744;7.086;2022-11-20T02:01:29;5.30;99.90
15765;DHT22;7983;50.744;7.086;2022-11-20T02:03:57;5.30;99.90
15765;DHT22;7983;50.744;7.086;2022-11-20T02:06:26;5.30;99.90
15765;DHT22;7983;50.744;7.086;2022-11-20T02:08:55;5.40;99.90
15765;DHT22;7983;50.744;7.086;2022-11-20T02:11:21;5.40;99.90
15765;DHT22;7983;50.744;7.086;2022-11-20T02:13:50;5.40;99.90
15765;DHT22;7983;50.744;7.086;2022-11-20T02:16:20;5.40;99.90
15765;DHT22;7983;50.744;7.086;2022-11-20T02:18:49;5.40;99.90
15765;DHT22;7983;50.744;7.086;2022-11-20T02:21:59;5.40;99.90
15765;DHT22;7983;50.744;7.086;2022-11-20T02:24:26;5.40;99.90
15765;DHT22;7983;50.744;7.086;2022-11-20T02:27:05;5.40;99.90
15765;DHT22;7983;50.744;7.086;2022-11-20T02:29:47;5.40;99.90
15765;DHT22;7983;50.744;7.086;2022-11-20T02:32:23;5.40;99.90
15765;DHT22;7983;50.744;7.086;2022-11-20T02:34:50;5.40;99.90
15765;DHT22;7983;50.744;7.086;2022-11-20T02:37:16;5.40;99.90
15765;DHT22;7983;50.744;7.086;2022-11-20T02:39:45;5.40;99.90
15765;DHT22;7983;50.744;7.086;2022-11-20T02:42:17;5.40;99.90
15765;DHT22;7983;50.744;7.086;2022-11-20T02:44:45;5.40;99.90
15765;DHT22;7983;50.744;7.086;2022-11-20T02:47:14;5.40;99.90
15765;DHT22;7983;50.744;7.086;2022-11-20T02:49:43;5.40;99.90
15765;DHT22;7983;50.744;7.086;2022-11-20T02:52:09;5.40;99.90
15765;DHT22;7983;50.744;7.086;2022-11-20T02:54:37;5.40;99.90
15765;DHT22;7983;50.744;7.086;2022-11-20T02:57:02;5.40;99.90
15765;DHT22;7983;50.744;7.086;2022-11-20T02:59:28;5.40;99.90
15765;DHT22;7983;50.744;7.086;2022-11-20T03:01:54;5.40;99.90
15765;DHT22;7983;50.744;7.086;2022-11-20T03:04:19;5.40;99.90
15765;DHT22;7983;50.744;7.086;2022-11-20T03:06:47;5.40;99.90
15765;DHT22;7983;50.744;7.086;2022-11-20T03:09:13;5.40;99.90
15765;DHT22;7983;50.744;7.086;2022-11-20T03:11:38;5.40;99.90
15765;DHT22;7983;50.744;7.086;2022-11-20T03:14:05;5.40;99.90
15765;DHT22;7983;50.744;7.086;2022-11-20T03:16:31;5.30;99.90
15765;DHT22;7983;50.744;7.086;2022-11-20T03:18:58;5.40;99.90
15765;DHT22;7983;50.744;7.086;2022-11-20T03:21:26;5.40;99.90
15765;DHT22;7983;50.744;7.086;2022-11-20T03:23:53;5.40;99.90
15765;DHT22;7983;50.744;7.086;2022-11-20T03:26:25;5.30;99.90
15765;DHT22;7983;50.744;7.086;2022-11-20T03:28:56;5.30;99.90
15765;DHT22;7983;50.744;7.086;2022-11-20T03:31:31;5.30;99.90
15765;DHT22;7983;50.744;7.086;2022-11-20T03:33:58;5.30;99.90
15765;DHT22;7983;50.744;7.086;2022-11-20T03:36:25;5.30;99.90
15765;DHT22;7983;50.744;7.086;2022-11-20T03:38:52;5.20;99.90
15765;DHT22;7983;50.744;7.086;2022-11-20T03:41:31;5.20;99.90
15765;DHT22;7983;50.744;7.086;2022-11-20T03:44:00;5.20;99.90
15765;DHT22;7983;50.744;7.086;2022-11-20T03:46:28;5.20;99.90
15765;DHT22;7983;50.744;7.086;2022-11-20T03:48:53;5.20;99.90
15765;DHT22;7983;50.744;7.086;2022-11-20T03:51:24;5.20;99.90
15765;DHT22;7983;50.744;7.086;2022-11-20T03:53:53;5.20;99.90
15765;DHT22;7983;50.744;7.086;2022-11-20T03:56:23;5.20;99.90
15765;DHT22;7983;50.744;7.086;2022-11-20T03:58:49;5.20;99.90
15765;DHT22;7983;50.744;7.086;2022-11-20T04:01:18;5.20;99.90
15765;DHT22;7983;50.744;7.086;2022-11-20T04:03:44;5.20;99.90
15765;DHT22;7983;50.744;7.086;2022-11-20T04:06:19;5.20;99.90
15765;DHT22;7983;50.744;7.086;2022-11-20T04:08:47;5.10;99.90
15765;DHT22;7983;50.744;7.086;2022-11-20T04:13:49;5.20;99.90
15765;DHT22;7983;50.744;7.086;2022-11-20T04:16:15;5.30;99.90
15765;DHT22;7983;50.744;7.086;2022-11-20T04:18:41;5.30;99.90
15765;DHT22;7983;50.744;7.086;2022-11-20T04:21:07;5.30;99.90
15765;DHT22;7983;50.744;7.086;2022-11-20T04:23:33;5.30;99.90
15765;DHT22;7983;50.744;7.086;2022-11-20T04:26:07;5.30;99.90
15765;DHT22;7983;50.744;7.086;2022-11-20T04:28:33;5.30;99.90
15765;DHT22;7983;50.744;7.086;2022-11-20T04:31:11;5.40;99.90
15765;DHT22;7983;50.744;7.086;2022-11-20T04:33:40;5.40;99.90
15765;DHT22;7983;50.744;7.086;2022-11-20T04:36:35;5.40;99.90
15765;DHT22;7983;50.744;7.086;2022-11-20T04:39:04;5.40;99.90
15765;DHT22;7983;50.744;7.086;2022-11-20T04:41:32;5.40;99.90
15765;DHT22;7983;50.744;7.086;2022-11-20T04:44:02;5.40;99.90
15765;DHT22;7983;50.744;7.086;2022-11-20T04:46:30;5.40;99.90
15765;DHT22;7983;50.744;7.086;2022-11-20T04:48:59;5.40;99.90
15765;DHT22;7983;50.744;7.086;2022-11-20T04:51:25;5.50;99.90
15765;DHT22;7983;50.744;7.086;2022-11-20T04:53:53;5.40;99.90
15765;DHT22;7983;50.744;7.086;2022-11-20T04:56:21;5.40;99.90
15765;DHT22;7983;50.744;7.086;2022-11-20T04:58:50;5.40;99.90
15765;DHT22;7983;50.744;7.086;2022-11-20T05:01:24;5.40;99.90
15765;DHT22;7983;50.744;7.086;2022-11-20T05:03:50;5.30;99.90
15765;DHT22;7983;50.744;7.086;2022-11-20T05:06:18;5.30;99.90
15765;DHT22;7983;50.744;7.086;2022-11-20T05:08:44;5.30;99.90
15765;DHT22;7983;50.744;7.086;2022-11-20T05:11:13;5.30;99.90
15765;DHT22;7983;50.744;7.086;2022-11-20T05:13:41;5.30;99.90
15765;DHT22;7983;50.744;7.086;2022-11-20T05:16:18;5.30;99.90
15765;DHT22;7983;50.744;7.086;2022-11-20T05:18:45;5.30;99.90
15765;DHT22;7983;50.744;7.086;2022-11-20T05:21:13;5.30;99.90
15765;DHT22;7983;50.744;7.086;2022-11-20T05:23:44;5.30;99.90
15765;DHT22;7983;50.744;7.086;2022-11-20T05:26:30;5.30;99.90
15765;DHT22;7983;50.744;7.086;2022-11-20T05:28:56;5.40;99.90
15765;DHT22;7983;50.744;7.086;2022-11-20T05:31:25;5.40;99.90
15765;DHT22;7983;50.744;7.086;2022-11-20T05:33:53;5.40;99.90
15765;DHT22;7983;50.744;7.086;2022-11-20T05:36:21;5.40;99.90
15765;DHT22;7983;50.744;7.086;2022-11-20T05:38:47;5.40;99.90
15765;DHT22;7983;50.744;7.086;2022-11-20T05:41:17;5.40;99.90
15765;DHT22;7983;50.744;7.086;2022-11-20T05:43:45;5.40;99.90
15765;DHT22;7983;50.744;7.086;2022-11-20T05:46:14;5.40;99.90
15765;DHT22;7983;50.744;7.086;2022-11-20T05:48:43;5.40;99.90
15765;DHT22;7983;50.744;7.086;2022-11-20T05:51:10;5.40;99.90
15765;DHT22;7983;50.744;7.086;2022-11-20T05:53:36;5.40;99.90
15765;DHT22;7983;50.744;7.086;2022-11-20T05:56:09;5.40;99.90
15765;DHT22;7983;50.744;7.086;2022-11-20T05:58:38;5.40;99.90
15765;DHT22;7983;50.744;7.086;2022-11-20T06:01:12;5.40;99.90
15765;DHT22;7983;50.744;7.086;2022-11-20T06:03:42;5.40;99.90
15765;DHT22;7983;50.744;7.086;2022-11-20T06:06:14;5.40;99.90
15765;DHT22;7983;50.744;7.086;2022-11-20T06:08:40;5.40;99.90
15765;DHT22;7983;50.744;7.086;2022-11-20T06:11:10;5.40;99.90
15765;DHT22;7983;50.744;7.086;2022-11-20T06:13:36;5.40;99.90
15765;DHT22;7983;50.744;7.086;2022-11-20T06:16:03;5.40;99.90
15765;DHT22;7983;50.744;7.086;2022-11-20T06:18:29;5.40;99.90
15765;DHT22;7983;50.744;7.086;2022-11-20T06:23:32;5.40;99.90
15765;DHT22;7983;50.744;7.086;2022-11-20T06:26:24;5.50;99.90
15765;DHT22;7983;50.744;7.086;2022-11-20T06:28:53;5.40;99.90
15765;DHT22;7983;50.744;7.086;2022-11-20T06:31:23;5.40;99.90
15765;DHT22;7983;50.744;7.086;2022-11-20T06:33:49;5.40;99.90
15765;DHT22;7983;50.744;7.086;2022-11-20T06:36:17;5.40;99.90
15765;DHT22;7983;50.744;7.086;2022-11-20T06:38:43;5.40;99.90
15765;DHT22;7983;50.744;7.086;2022-11-20T06:41:12;5.40;99.90
15765;DHT22;7983;50.744;7.086;2022-11-20T06:43:38;5.50;99.90
15765;DHT22;7983;50.744;7.086;2022-11-20T06:46:06;5.50;99.90
15765;DHT22;7983;50.744;7.086;2022-11-20T06:48:32;5.50;99.90
15765;DHT22;7983;50.744;7.086;2022-11-20T06:50:58;5.50;99.90
15765;DHT22;7983;50.744;7.086;2022-11-20T06:53:24;5.50;99.90
15765;DHT22;7983;50.744;7.086;2022-11-20T06:55:51;5.50;99.90
15765;DHT22;7983;50.744;7.086;2022-11-20T06:58:17;5.50;99.90
15765;DHT22;7983;50.744;7.086;2022-11-20T07:00:43;5.50;99.90
15765;DHT22;7983;50.744;7.086;2022-11-20T07:03:11;5.50;99.90
15765;DHT22;7983;50.744;7.086;2022-11-20T07:05:40;5.50;99.90
15765;DHT22;7983;50.744;7.086;2022-11-20T07:08:06;5.50;99.90
15765;DHT22;7983;50.744;7.086;2022-11-20T07:10:32;5.60;99.90
15765;DHT22;7983;50.744;7.086;2022-11-20T07:13:00;5.50;99.90
15765;DHT22;7983;50.744;7.086;2022-11-20T07:15:26;5.60;99.90
15765;DHT22;7983;50.744;7.086;2022-11-20T07:17:54;5.60;99.90
15765;DHT22;7983;50.744;7.086;2022-11-20T07:20:20;5.60;99.90
15765;DHT22;7983;50.744;7.086;2022-11-20T07:22:46;5.60;99.90
15765;DHT22;7983;50.744;7.086;2022-11-20T07:25:13;5.60;99.90
15765;DHT22;7983;50.744;7.086;2022-11-20T07:27:39;5.60;99.90
15765;DHT22;7983;50.744;7.086;2022-11-20T07:30:07;5.60;99.90
15765;DHT22;7983;50.744;7.086;2022-11-20T07:32:33;5.60;99.90
15765;DHT22;7983;50.744;7.086;2022-11-20T07:34:58;5.70;99.90
15765;DHT22;7983;50.744;7.086;2022-11-20T07:37:24;5.70;99.90
15765;DHT22;7983;50.744;7.086;2022-11-20T07:39:52;5.70;99.90
15765;DHT22;7983;50.744;7.086;2022-11-20T07:42:19;5.70;99.90
15765;DHT22;7983;50.744;7.086;2022-11-20T07:44:45;5.70;99.90
15765;DHT22;7983;50.744;7.086;2022-11-20T07:47:11;5.70;99.90
15765;DHT22;7983;50.744;7.086;2022-11-20T07:49:38;5.70;99.90
15765;DHT22;7983;50.744;7.086;2022-11-20T07:52:04;5.70;99.90
15765;DHT22;7983;50.744;7.086;2022-11-20T07:54:29;5.70;99.90
15765;DHT22;7983;50.744;7.086;2022-11-20T07:56:55;5.70;99.90
15765;DHT22;7983;50.744;7.086;2022-11-20T07:59:21;5.70;99.90
15765;DHT22;7983;50.744;7.086;2022-11-20T08:01:46;5.80;99.90
15765;DHT22;7983;50.744;7.086;2022-11-20T08:04:14;5.80;99.90
15765;DHT22;7983;50.744;7.086;2022-11-20T08:06:42;5.80;99.90
15765;DHT22;7983;50.744;7.086;2022-11-20T08:09:07;5.80;99.90
15765;DHT22;7983;50.744;7.086;2022-11-20T08:11:33;5.90;99.90
15765;DHT22;7983;50.744;7.086;2022-11-20T08:14:17;5.80;99.90
15765;DHT22;7983;50.744;7.086;2022-11-20T08:16:47;5.90;99.90
15765;DHT22;7983;50.744;7.086;2022-11-20T08:19:14;5.90;99.90
15765;DHT22;7983;50.744;7.086;2022-11-20T08:21:40;5.90;99.90
15765;DHT22;7983;50.744;7.086;2022-11-20T08:24:07;5.90;99.90
15765;DHT22;7983;50.744;7.086;2022-11-20T08:26:34;6.00;99.90
15765;DHT22;7983;50.744;7.086;2022-11-20T08:28:59;6.10;99.90
15765;DHT22;7983;50.744;7.086;2022-11-20T08:31:27;6.00;99.90
15765;DHT22;7983;50.744;7.086;2022-11-20T08:33:53;6.00;99.90
15765;DHT22;7983;50.744;7.086;2022-11-20T08:36:20;6.00;99.90
15765;DHT22;7983;50.744;7.086;2022-11-20T08:38:55;6.00;99.90
15765;DHT22;7983;50.744;7.086;2022-11-20T08:41:23;6.10;99.90
15765;DHT22;7983;50.744;7.086;2022-11-20T08:44:01;6.10;99.90
15765;DHT22;7983;50.744;7.086;2022-11-20T08:46:32;6.10;99.90
15765;DHT22;7983;50.744;7.086;2022-11-20T08:49:09;6.10;99.90
15765;DHT22;7983;50.744;7.086;2022-11-20T08:51:36;6.10;99.90
15765;DHT22;7983;50.744;7.086;2022-11-20T08:54:04;6.10;99.90
15765;DHT22;7983;50.744;7.086;2022-11-20T08:56:31;6.10;99.90
15765;DHT22;7983;50.744;7.086;2022-11-20T08:58:57;6.20;99.90
15765;DHT22;7983;50.744;7.086;2022-11-20T09:01:25;6.20;99.90
15765;DHT22;7983;50.744;7.086;2022-11-20T09:03:55;6.30;99.90
15765;DHT22;7983;50.744;7.086;2022-11-20T09:06:26;6.30;99.90
15765;DHT22;7983;50.744;7.086;2022-11-20T09:08:53;6.30;99.90
15765;DHT22;7983;50.744;7.086;2022-11-20T09:11:19;6.40;99.90
15765;DHT22;7983;50.744;7.086;2022-11-20T09:13:47;6.40;99.90
15765;DHT22;7983;50.744;7.086;2022-11-20T09:16:12;6.40;99.90
15765;DHT22;7983;50.744;7.086;2022-11-20T09:18:38;6.50;99.90
15765;DHT22;7983;50.744;7.086;2022-11-20T09:21:07;6.50;99.90
15765;DHT22;7983;50.744;7.086;2022-11-20T09:23:35;6.60;99.90
15765;DHT22;7983;50.744;7.086;2022-11-20T09:26:11;6.60;99.90
15765;DHT22;7983;50.744;7.086;2022-11-20T09:28:37;6.70;99.90
15765;DHT22;7983;50.744;7.086;2022-11-20T09:31:07;6.70;99.90
15765;DHT22;7983;50.744;7.086;2022-11-20T09:33:35;6.70;99.90
15765;DHT22;7983;50.744;7.086;2022-11-20T09:36:01;6.70;99.90
15765;DHT22;7983;50.744;7.086;2022-11-20T09:38:26;6.70;99.90
15765;DHT22;7983;50.744;7.086;2022-11-20T09:43:19;6.80;99.90
15765;DHT22;7983;50.744;7.086;2022-11-20T09:46:35;6.80;99.90
15765;DHT22;7983;50.744;7.086;2022-11-20T09:54:33;6.90;99.90
15765;DHT22;7983;50.744;7.086;2022-11-20T09:57:03;6.90;99.90
15765;DHT22;7983;50.744;7.086;2022-11-20T09:59:46;6.90;99.90
15765;DHT22;7983;50.744;7.086;2022-11-20T10:04:49;7.10;99.90
15765;DHT22;7983;50.744;7.086;2022-11-20T10:07:34;7.10;99.90
15765;DHT22;7983;50.744;7.086;2022-11-20T10:10:01;7.30;99.90
15765;DHT22;7983;50.744;7.086;2022-11-20T10:12:36;7.30;99.90
15765;DHT22;7983;50.744;7.086;2022-11-20T10:18:09;7.60;99.90
15765;DHT22;7983;50.744;7.086;2022-11-20T10:31:37;7.70;99.90
15765;DHT22;7983;50.744;7.086;2022-11-20T10:34:27;7.70;99.90
15765;DHT22;7983;50.744;7.086;2022-11-20T10:37:02;7.70;99.90
15765;DHT22;7983;50.744;7.086;2022-11-20T10:39:37;7.70;99.90
15765;DHT22;7983;50.744;7.086;2022-11-20T10:47:54;7.60;99.90
15765;DHT22;7983;50.744;7.086;2022-11-20T10:50:22;7.60;99.90
15765;DHT22;7983;50.744;7.086;2022-11-20T10:53:08;7.60;99.90
15765;DHT22;7983;50.744;7.086;2022-11-20T10:56:00;7.50;99.90
15765;DHT22;7983;50.744;7.086;2022-11-20T10:58:58;7.50;99.90
15765;DHT22;7983;50.744;7.086;2022-11-20T11:01:28;7.50;99.90
15765;DHT22;7983;50.744;7.086;2022-11-20T11:03:57;7.40;99.90
15765;DHT22;7983;50.744;7.086;2022-11-20T11:06:35;7.40;99.90
15765;DHT22;7983;50.744;7.086;2022-11-20T11:09:11;7.50;99.90
15765;DHT22;7983;50.744;7.086;2022-11-20T11:11:38;7.40;99.90
15765;DHT22;7983;50.744;7.086;2022-11-20T11:14:11;7.40;99.90
15765;DHT22;7983;50.744;7.086;2022-11-20T11:16:51;7.60;99.90
15765;DHT22;7983;50.744;7.086;2022-11-20T11:19:17;7.50;99.90
15765;DHT22;7983;50.744;7.086;2022-11-20T11:21:47;7.60;99.90
15765;DHT22;7983;50.744;7.086;2022-11-20T11:24:28;7.60;99.90
15765;DHT22;7983;50.744;7.086;2022-11-20T11:27:10;7.60;99.90
15765;DHT22;7983;50.744;7.086;2022-11-20T11:29:36;7.70;99.90
15765;DHT22;7983;50.744;7.086;2022-11-20T11:32:07;7.80;99.90
15765;DHT22;7983;50.744;7.086;2022-11-20T11:34:34;7.80;99.90
15765;DHT22;7983;50.744;7.086;2022-11-20T11:37:03;7.80;99.90
15765;DHT22;7983;50.744;7.086;2022-11-20T11:39:32;7.80;99.90
15765;DHT22;7983;50.744;7.086;2022-11-20T11:42:00;7.80;99.90
15765;DHT22;7983;50.744;7.086;2022-11-20T11:44:34;7.80;99.90
15765;DHT22;7983;50.744;7.086;2022-11-20T11:47:29;7.80;99.90
15765;DHT22;7983;50.744;7.086;2022-11-20T11:52:45;7.90;99.90
15765;DHT22;7983;50.744;7.086;2022-11-20T11:58:46;7.90;99.90
15765;DHT22;7983;50.744;7.086;2022-11-20T12:04:18;7.90;99.90
15765;DHT22;7983;50.744;7.086;2022-11-20T12:06:50;8.00;99.90
15765;DHT22;7983;50.744;7.086;2022-11-20T12:09:18;8.00;99.90
15765;DHT22;7983;50.744;7.086;2022-11-20T12:12:04;8.00;99.90
15765;DHT22;7983;50.744;7.086;2022-11-20T12:17:04;8.00;99.90
15765;DHT22;7983;50.744;7.086;2022-11-20T12:19:34;8.00;99.90
15765;DHT22;7983;50.744;7.086;2022-11-20T12:30:10;8.10;99.90
15765;DHT22;7983;50.744;7.086;2022-11-20T12:32:43;8.10;99.90
15765;DHT22;7983;50.744;7.086;2022-11-20T12:35:29;8.10;99.90
15765;DHT22;7983;50.744;7.086;2022-11-20T12:44:18;8.30;99.90
15765;DHT22;7983;50.744;7.086;2022-11-20T12:53:23;8.40;99.90
15765;DHT22;7983;50.744;7.086;2022-11-20T12:58:45;8.40;99.90
15765;DHT22;7983;50.744;7.086;2022-11-20T13:07:06;8.50;99.90
15765;DHT22;7983;50.744;7.086;2022-11-20T13:09:34;8.50;99.90
15765;DHT22;7983;50.744;7.086;2022-11-20T13:12:03;8.40;99.90
15765;DHT22;7983;50.744;7.086;2022-11-20T13:14:55;8.50;99.90
15765;DHT22;7983;50.744;7.086;2022-11-20T13:17:37;8.50;99.90
15765;DHT22;7983;50.744;7.086;2022-11-20T13:20:06;8.50;99.90
15765;DHT22;7983;50.744;7.086;2022-11-20T13:22:47;8.50;99.90
15765;DHT22;7983;50.744;7.086;2022-11-20T13:25:30;8.50;99.90
15765;DHT22;7983;50.744;7.086;2022-11-20T13:28:03;8.50;99.90
15765;DHT22;7983;50.744;7.086;2022-11-20T13:30:30;8.50;99.90
15765;DHT22;7983;50.744;7.086;2022-11-20T13:35:32;8.60;99.90
15765;DHT22;7983;50.744;7.086;2022-11-20T13:38:13;8.60;99.90
15765;DHT22;7983;50.744;7.086;2022-11-20T13:40:59;8.60;99.90
15765;DHT22;7983;50.744;7.086;2022-11-20T13:43:49;8.60;99.90
15765;DHT22;7983;50.744;7.086;2022-11-20T13:46:15;8.60;99.90
15765;DHT22;7983;50.744;7.086;2022-11-20T13:48:46;8.60;99.90
15765;DHT22;7983;50.744;7.086;2022-11-20T13:51:28;8.60;99.90
15765;DHT22;7983;50.744;7.086;2022-11-20T14:00:11;8.60;99.90
15765;DHT22;7983;50.744;7.086;2022-11-20T14:02:40;8.60;99.90
15765;DHT22;7983;50.744;7.086;2022-11-20T14:05:19;8.60;99.90
15765;DHT22;7983;50.744;7.086;2022-11-20T14:07:45;8.60;99.90
15765;DHT22;7983;50.744;7.086;2022-11-20T14:10:28;8.60;99.90
15765;DHT22;7983;50.744;7.086;2022-11-20T14:12:54;8.60;99.90
15765;DHT22;7983;50.744;7.086;2022-11-20T14:15:32;8.60;99.90
15765;DHT22;7983;50.744;7.086;2022-11-20T14:17:59;8.70;99.90
15765;DHT22;7983;50.744;7.086;2022-11-20T14:20:38;8.70;99.90
15765;DHT22;7983;50.744;7.086;2022-11-20T14:23:09;8.70;99.90
15765;DHT22;7983;50.744;7.086;2022-11-20T14:25:42;8.70;99.90
15765;DHT22;7983;50.744;7.086;2022-11-20T14:28:24;8.70;99.90
15765;DHT22;7983;50.744;7.086;2022-11-20T14:30:51;8.70;99.90
15765;DHT22;7983;50.744;7.086;2022-11-20T14:33:17;8.70;99.90
15765;DHT22;7983;50.744;7.086;2022-11-20T14:35:50;8.80;99.90
15765;DHT22;7983;50.744;7.086;2022-11-20T14:38:18;8.80;99.90
15765;DHT22;7983;50.744;7.086;2022-11-20T14:40:47;8.80;99.90
15765;DHT22;7983;50.744;7.086;2022-11-20T14:43:23;8.80;99.90
15765;DHT22;7983;50.744;7.086;2022-11-20T14:45:58;8.80;99.90
15765;DHT22;7983;50.744;7.086;2022-11-20T14:48:48;8.80;99.90
15765;DHT22;7983;50.744;7.086;2022-11-20T14:51:46;8.80;99.90
15765;DHT22;7983;50.744;7.086;2022-11-20T14:54:20;8.90;99.90
15765;DHT22;7983;50.744;7.086;2022-11-20T14:56:58;8.90;99.90
15765;DHT22;7983;50.744;7.086;2022-11-20T14:59:28;8.90;99.90
15765;DHT22;7983;50.744;7.086;2022-11-20T15:01:57;8.90;99.90
15765;DHT22;7983;50.744;7.086;2022-11-20T15:04:23;8.90;99.90
15765;DHT22;7983;50.744;7.086;2022-11-20T15:06:53;8.90;99.90
15765;DHT22;7983;50.744;7.086;2022-11-20T15:09:19;8.90;99.90
15765;DHT22;7983;50.744;7.086;2022-11-20T15:11:55;8.80;99.90
15765;DHT22;7983;50.744;7.086;2022-11-20T15:14:22;8.90;99.90
15765;DHT22;7983;50.744;7.086;2022-11-20T15:16:49;8.80;99.90
15765;DHT22;7983;50.744;7.086;2022-11-20T15:19:22;8.90;99.90
15765;DHT22;7983;50.744;7.086;2022-11-20T15:21:48;8.90;99.90
15765;DHT22;7983;50.744;7.086;2022-11-20T15:24:14;8.80;99.90
15765;DHT22;7983;50.744;7.086;2022-11-20T15:26:40;8.90;99.90
15765;DHT22;7983;50.744;7.086;2022-11-20T15:29:15;8.90;99.90
15765;DHT22;7983;50.744;7.086;2022-11-20T15:31:44;8.80;99.90
15765;DHT22;7983;50.744;7.086;2022-11-20T15:34:18;8.80;99.90
15765;DHT22;7983;50.744;7.086;2022-11-20T15:36:46;8.80;99.90
15765;DHT22;7983;50.744;7.086;2022-11-20T15:39:12;8.80;99.90
15765;DHT22;7983;50.744;7.086;2022-11-20T15:41:38;8.70;99.90
15765;DHT22;7983;50.744;7.086;2022-11-20T15:44:07;8.70;99.90
15765;DHT22;7983;50.744;7.086;2022-11-20T15:46:35;8.60;99.90
15765;DHT22;7983;50.744;7.086;2022-11-20T15:49:06;8.60;99.90
15765;DHT22;7983;50.744;7.086;2022-11-20T15:51:38;8.60;99.90
15765;DHT22;7983;50.744;7.086;2022-11-20T15:54:21;8.50;99.90
15765;DHT22;7983;50.744;7.086;2022-11-20T15:56:50;8.50;99.90
15765;DHT22;7983;50.744;7.086;2022-11-20T15:59:19;8.60;99.90
15765;DHT22;7983;50.744;7.086;2022-11-20T16:01:47;8.50;99.90
15765;DHT22;7983;50.744;7.086;2022-11-20T16:04:15;8.50;99.90
15765;DHT22;7983;50.744;7.086;2022-11-20T16:06:41;8.50;99.90
15765;DHT22;7983;50.744;7.086;2022-11-20T16:09:09;8.50;99.90
15765;DHT22;7983;50.744;7.086;2022-11-20T16:11:37;8.50;99.90
15765;DHT22;7983;50.744;7.086;2022-11-20T16:14:04;8.40;99.90
15765;DHT22;7983;50.744;7.086;2022-11-20T16:16:51;8.50;99.90
15765;DHT22;7983;50.744;7.086;2022-11-20T16:19:17;8.40;99.90
15765;DHT22;7983;50.744;7.086;2022-11-20T16:21:43;8.40;99.90
15765;DHT22;7983;50.744;7.086;2022-11-20T16:24:16;8.40;99.90
15765;DHT22;7983;50.744;7.086;2022-11-20T16:26:42;8.40;99.90
15765;DHT22;7983;50.744;7.086;2022-11-20T16:29:08;8.30;99.90
15765;DHT22;7983;50.744;7.086;2022-11-20T16:31:37;8.30;99.90
15765;DHT22;7983;50.744;7.086;2022-11-20T16:34:05;8.30;99.90
15765;DHT22;7983;50.744;7.086;2022-11-20T16:36:31;8.30;99.90
15765;DHT22;7983;50.744;7.086;2022-11-20T16:39:00;8.30;99.90
15765;DHT22;7983;50.744;7.086;2022-11-20T16:41:29;8.30;99.90
15765;DHT22;7983;50.744;7.086;2022-11-20T16:43:57;8.20;99.90
15765;DHT22;7983;50.744;7.086;2022-11-20T16:46:28;8.20;99.90
15765;DHT22;7983;50.744;7.086;2022-11-20T16:48:55;8.20;99.90
15765;DHT22;7983;50.744;7.086;2022-11-20T16:51:24;8.20;99.90
15765;DHT22;7983;50.744;7.086;2022-11-20T16:53:50;8.20;99.90
15765;DHT22;7983;50.744;7.086;2022-11-20T16:56:22;8.10;99.90
15765;DHT22;7983;50.744;7.086;2022-11-20T16:58:52;8.10;99.90
15765;DHT22;7983;50.744;7.086;2022-11-20T17:01:21;8.20;99.90
15765;DHT22;7983;50.744;7.086;2022-11-20T17:06:28;8.10;99.90
15765;DHT22;7983;50.744;7.086;2022-11-20T17:08:55;8.10;99.90
15765;DHT22;7983;50.744;7.086;2022-11-20T17:11:21;8.10;99.90
15765;DHT22;7983;50.744;7.086;2022-11-20T17:13:49;8.10;99.90
15765;DHT22;7983;50.744;7.086;2022-11-20T17:16:22;8.10;99.90
15765;DHT22;7983;50.744;7.086;2022-11-20T17:18:50;8.10;99.90
15765;DHT22;7983;50.744;7.086;2022-11-20T17:21:19;8.10;99.90
15765;DHT22;7983;50.744;7.086;2022-11-20T17:23:50;8.10;99.90
15765;DHT22;7983;50.744;7.086;2022-11-20T17:26:21;8.10;99.90
15765;DHT22;7983;50.744;7.086;2022-11-20T17:28:53;8.10;99.90
15765;DHT22;7983;50.744;7.086;2022-11-20T17:31:22;8.10;99.90
15765;DHT22;7983;50.744;7.086;2022-11-20T17:33:47;8.10;99.90
15765;DHT22;7983;50.744;7.086;2022-11-20T17:36:15;8.10;99.90
15765;DHT22;7983;50.744;7.086;2022-11-20T17:38:42;8.10;99.90
15765;DHT22;7983;50.744;7.086;2022-11-20T17:41:16;8.10;99.90
15765;DHT22;7983;50.744;7.086;2022-11-20T17:43:42;8.10;99.90
15765;DHT22;7983;50.744;7.086;2022-11-20T17:46:14;8.10;99.90
15765;DHT22;7983;50.744;7.086;2022-11-20T17:48:43;8.10;99.90
15765;DHT22;7983;50.744;7.086;2022-11-20T17:51:17;8.10;99.90
15765;DHT22;7983;50.744;7.086;2022-11-20T17:53:44;8.10;99.90
15765;DHT22;7983;50.744;7.086;2022-11-20T17:56:10;8.10;99.90
15765;DHT22;7983;50.744;7.086;2022-11-20T17:58:55;8.10;99.90
15765;DHT22;7983;50.744;7.086;2022-11-20T18:01:21;8.10;99.90